sensor_id;sensor_type;location;lat;lon;timestamp;temperature;humidity
31443;SHT31;18065;55.876;9.830;2023-06-22T00:00:14;26.48;47.64
31443;SHT31;18065;55.876;9.830;2023-06-22T00:02:45;26.48;47.72
31443;SHT31;18065;55.876;9.830;2023-06-22T00:05:14;26.44;47.82
31443;SHT31;18065;55.876;9.830;2023-06-22T00:07:42;26.47;47.83
31443;SHT31;18065;55.876;9.830;2023-06-22T00:10:11;26.45;47.86
31443;SHT31;18065;55.876;9.830;2023-06-22T00:12:40;26.45;47.83
31443;SHT31;18065;55.876;9.830;2023-06-22T00:15:11;26.48;47.91
31443;SHT31;18065;55.876;9.830;2023-06-22T00:17:40;26.44;47.95
31443;SHT31;18065;55.876;9.830;2023-06-22T00:20:11;26.41;47.97
31443;SHT31;18065;55.876;9.830;2023-06-22T00:22:40;26.40;48.09
31443;SHT31;18065;55.876;9.830;2023-06-22T00:25:09;26.42;48.08
31443;SHT31;18065;55.876;9.830;2023-06-22T00:27:38;26.38;48.07
31443;SHT31;18065;55.876;9.830;2023-06-22T00:30:08;26.44;48.09
31443;SHT31;18065;55.876;9.830;2023-06-22T00:32:37;26.41;48.19
31443;SHT31;18065;55.876;9.830;2023-06-22T00:35:06;26.34;48.26
31443;SHT31;18065;55.876;9.830;2023-06-22T00:37:38;26.35;48.28
31443;SHT31;18065;55.876;9.830;2023-06-22T00:40:08;26.32;48.27
31443;SHT31;18065;55.876;9.830;2023-06-22T00:42:38;26.32;48.33
31443;SHT31;18065;55.876;9.830;2023-06-22T00:45:08;26.32;48.29
31443;SHT31;18065;55.876;9.830;2023-06-22T00:47:37;26.24;48.38
31443;SHT31;18065;55.876;9.830;2023-06-22T00:50:08;26.20;48.38
31443;SHT31;18065;55.876;9.830;2023-06-22T00:52:40;26.22;48.36
31443;SHT31;18065;55.876;9.830;2023-06-22T00:55:10;26.20;48.32
31443;SHT31;18065;55.876;9.830;2023-06-22T00:57:40;26.18;48.35
31443;SHT31;18065;55.876;9.830;2023-06-22T01:00:10;26.18;48.35
31443;SHT31;18065;55.876;9.830;2023-06-22T01:02:42;26.18;48.38
31443;SHT31;18065;55.876;9.830;2023-06-22T01:05:13;26.16;48.41
31443;SHT31;18065;55.876;9.830;2023-06-22T01:07:52;26.14;48.42
31443;SHT31;18065;55.876;9.830;2023-06-22T01:10:29;26.10;48.47
31443;SHT31;18065;55.876;9.830;2023-06-22T01:13:02;26.07;48.51
31443;SHT31;18065;55.876;9.830;2023-06-22T01:15:36;26.10;48.50
31443;SHT31;18065;55.876;9.830;2023-06-22T01:18:08;26.08;48.42
31443;SHT31;18065;55.876;9.830;2023-06-22T01:20:38;26.10;48.45
31443;SHT31;18065;55.876;9.830;2023-06-22T01:23:16;26.08;48.46
31443;SHT31;18065;55.876;9.830;2023-06-22T01:25:48;26.05;48.49
31443;SHT31;18065;55.876;9.830;2023-06-22T01:28:43;26.04;48.50
31443;SHT31;18065;55.876;9.830;2023-06-22T01:31:16;26.01;48.47
31443;SHT31;18065;55.876;9.830;2023-06-22T01:33:48;26.03;48.54
31443;SHT31;18065;55.876;9.830;2023-06-22T01:36:19;26.01;48.54
31443;SHT31;18065;55.876;9.830;2023-06-22T01:38:48;26.01;48.52
31443;SHT31;18065;55.876;9.830;2023-06-22T01:41:18;26.01;48.46
31443;SHT31;18065;55.876;9.830;2023-06-22T01:43:50;26.01;48.41
31443;SHT31;18065;55.876;9.830;2023-06-22T01:46:20;26.05;48.42
31443;SHT31;18065;55.876;9.830;2023-06-22T01:48:50;26.05;48.41
31443;SHT31;18065;55.876;9.830;2023-06-22T01:51:19;26.07;48.38
31443;SHT31;18065;55.876;9.830;2023-06-22T01:53:47;26.04;48.46
31443;SHT31;18065;55.876;9.830;2023-06-22T01:56:17;26.04;48.44
31443;SHT31;18065;55.876;9.830;2023-06-22T01:58:53;26.04;48.45
31443;SHT31;18065;55.876;9.830;2023-06-22T02:01:29;26.04;48.41
31443;SHT31;18065;55.876;9.830;2023-06-22T02:04:03;26.04;48.45
31443;SHT31;18065;55.876;9.830;2023-06-22T02:06:37;26.07;48.41
31443;SHT31;18065;55.876;9.830;2023-06-22T02:09:09;26.11;48.37
31443;SHT31;18065;55.876;9.830;2023-06-22T02:11:40;26.11;48.19
31443;SHT31;18065;55.876;9.830;2023-06-22T02:14:13;26.10;48.35
31443;SHT31;18065;55.876;9.830;2023-06-22T02:16:42;26.10;48.29
31443;SHT31;18065;55.876;9.830;2023-06-22T02:19:11;26.07;48.25
31443;SHT31;18065;55.876;9.830;2023-06-22T02:21:44;26.11;48.21
31443;SHT31;18065;55.876;9.830;2023-06-22T02:24:12;26.10;48.17
31443;SHT31;18065;55.876;9.830;2023-06-22T02:26:42;26.11;48.22
31443;SHT31;18065;55.876;9.830;2023-06-22T02:29:14;26.14;48.21
31443;SHT31;18065;55.876;9.830;2023-06-22T02:31:43;26.17;48.09
31443;SHT31;18065;55.876;9.830;2023-06-22T02:34:11;26.16;48.04
31443;SHT31;18065;55.876;9.830;2023-06-22T02:36:44;26.17;48.07
31443;SHT31;18065;55.876;9.830;2023-06-22T02:39:17;26.18;48.06
31443;SHT31;18065;55.876;9.830;2023-06-22T02:41:46;26.17;48.05
31443;SHT31;18065;55.876;9.830;2023-06-22T02:44:17;26.21;48.02
31443;SHT31;18065;55.876;9.830;2023-06-22T02:46:47;26.18;48.01
31443;SHT31;18065;55.876;9.830;2023-06-22T02:49:16;26.24;47.91
31443;SHT31;18065;55.876;9.830;2023-06-22T02:51:46;26.24;47.91
31443;SHT31;18065;55.876;9.830;2023-06-22T02:54:15;26.28;47.84
31443;SHT31;18065;55.876;9.830;2023-06-22T02:56:44;26.27;47.83
31443;SHT31;18065;55.876;9.830;2023-06-22T02:59:13;26.24;47.84
31443;SHT31;18065;55.876;9.830;2023-06-22T03:01:45;26.20;47.97
31443;SHT31;18065;55.876;9.830;2023-06-22T03:04:14;26.20;47.98
31443;SHT31;18065;55.876;9.830;2023-06-22T03:06:43;26.20;47.96
31443;SHT31;18065;55.876;9.830;2023-06-22T03:09:16;26.22;47.87
31443;SHT31;18065;55.876;9.830;2023-06-22T03:11:45;26.17;47.96
31443;SHT31;18065;55.876;9.830;2023-06-22T03:14:13;26.17;48.10
31443;SHT31;18065;55.876;9.830;2023-06-22T03:16:45;26.16;48.03
31443;SHT31;18065;55.876;9.830;2023-06-22T03:19:14;26.16;48.06
31443;SHT31;18065;55.876;9.830;2023-06-22T03:21:42;26.12;48.08
31443;SHT31;18065;55.876;9.830;2023-06-22T03:24:11;26.17;48.11
31443;SHT31;18065;55.876;9.830;2023-06-22T03:26:40;26.16;48.01
31443;SHT31;18065;55.876;9.830;2023-06-22T03:29:11;26.14;48.06
31443;SHT31;18065;55.876;9.830;2023-06-22T03:31:43;26.14;48.03
31443;SHT31;18065;55.876;9.830;2023-06-22T03:34:12;26.16;48.02
31443;SHT31;18065;55.876;9.830;2023-06-22T03:36:41;26.12;48.07
31443;SHT31;18065;55.876;9.830;2023-06-22T03:39:10;26.18;48.02
31443;SHT31;18065;55.876;9.830;2023-06-22T03:41:39;26.17;48.01
31443;SHT31;18065;55.876;9.830;2023-06-22T03:44:08;26.16;48.02
31443;SHT31;18065;55.876;9.830;2023-06-22T03:46:38;26.17;48.05
31443;SHT31;18065;55.876;9.830;2023-06-22T03:49:09;26.17;48.03
31443;SHT31;18065;55.876;9.830;2023-06-22T03:51:38;26.16;48.03
31443;SHT31;18065;55.876;9.830;2023-06-22T03:54:06;26.18;48.05
31443;SHT31;18065;55.876;9.830;2023-06-22T03:56:35;26.20;48.06
31443;SHT31;18065;55.876;9.830;2023-06-22T03:59:04;26.21;47.99
31443;SHT31;18065;55.876;9.830;2023-06-22T04:01:32;26.25;47.93
31443;SHT31;18065;55.876;9.830;2023-06-22T04:04:02;26.25;47.97
31443;SHT31;18065;55.876;9.830;2023-06-22T04:06:33;26.31;47.90
31443;SHT31;18065;55.876;9.830;2023-06-22T04:09:02;26.27;47.87
31443;SHT31;18065;55.876;9.830;2023-06-22T04:11:31;26.30;47.85
31443;SHT31;18065;55.876;9.830;2023-06-22T04:14:00;26.31;47.88
31443;SHT31;18065;55.876;9.830;2023-06-22T04:16:28;26.30;47.83
31443;SHT31;18065;55.876;9.830;2023-06-22T04:18:57;26.30;47.87
31443;SHT31;18065;55.876;9.830;2023-06-22T04:21:26;26.31;47.87
31443;SHT31;18065;55.876;9.830;2023-06-22T04:23:57;26.32;47.85
31443;SHT31;18065;55.876;9.830;2023-06-22T04:26:26;26.30;47.91
31443;SHT31;18065;55.876;9.830;2023-06-22T04:28:54;26.30;47.91
31443;SHT31;18065;55.876;9.830;2023-06-22T04:31:23;26.31;47.90
31443;SHT31;18065;55.876;9.830;2023-06-22T04:33:57;26.27;47.94
31443;SHT31;18065;55.876;9.830;2023-06-22T04:36:30;26.30;47.91
31443;SHT31;18065;55.876;9.830;2023-06-22T04:39:05;26.22;48.05
31443;SHT31;18065;55.876;9.830;2023-06-22T04:41:35;26.22;48.15
31443;SHT31;18065;55.876;9.830;2023-06-22T04:44:10;26.18;48.19
31443;SHT31;18065;55.876;9.830;2023-06-22T04:46:39;26.17;48.19
31443;SHT31;18065;55.876;9.830;2023-06-22T04:49:08;26.14;48.28
31443;SHT31;18065;55.876;9.830;2023-06-22T04:51:40;26.11;48.32
31443;SHT31;18065;55.876;9.830;2023-06-22T04:54:11;26.05;48.39
31443;SHT31;18065;55.876;9.830;2023-06-22T04:56:40;26.07;48.46
31443;SHT31;18065;55.876;9.830;2023-06-22T04:59:09;26.05;48.41
31443;SHT31;18065;55.876;9.830;2023-06-22T05:01:38;26.03;48.48
31443;SHT31;18065;55.876;9.830;2023-06-22T05:04:07;26.03;48.52
31443;SHT31;18065;55.876;9.830;2023-06-22T05:06:36;26.04;48.51
31443;SHT31;18065;55.876;9.830;2023-06-22T05:09:05;26.00;48.61
31443;SHT31;18065;55.876;9.830;2023-06-22T05:11:36;25.98;48.71
31443;SHT31;18065;55.876;9.830;2023-06-22T05:14:05;25.94;48.74
31443;SHT31;18065;55.876;9.830;2023-06-22T05:16:34;25.90;48.82
31443;SHT31;18065;55.876;9.830;2023-06-22T05:19:03;25.91;48.80
31443;SHT31;18065;55.876;9.830;2023-06-22T05:21:32;25.91;48.82
31443;SHT31;18065;55.876;9.830;2023-06-22T05:24:01;25.90;48.88
31443;SHT31;18065;55.876;9.830;2023-06-22T05:26:30;25.89;48.89
31443;SHT31;18065;55.876;9.830;2023-06-22T05:29:02;25.91;48.91
31443;SHT31;18065;55.876;9.830;2023-06-22T05:31:31;25.89;48.87
31443;SHT31;18065;55.876;9.830;2023-06-22T05:34:00;25.90;48.94
31443;SHT31;18065;55.876;9.830;2023-06-22T05:36:29;25.94;48.89
31443;SHT31;18065;55.876;9.830;2023-06-22T05:38:57;25.96;48.93
31443;SHT31;18065;55.876;9.830;2023-06-22T05:41:26;25.97;48.90
31443;SHT31;18065;55.876;9.830;2023-06-22T05:43:55;25.89;49.05
31443;SHT31;18065;55.876;9.830;2023-06-22T05:46:26;25.89;49.05
31443;SHT31;18065;55.876;9.830;2023-06-22T05:48:55;25.91;49.00
31443;SHT31;18065;55.876;9.830;2023-06-22T05:51:23;25.91;49.03
31443;SHT31;18065;55.876;9.830;2023-06-22T05:53:52;25.94;48.95
31443;SHT31;18065;55.876;9.830;2023-06-22T05:56:21;25.97;48.92
31443;SHT31;18065;55.876;9.830;2023-06-22T05:58:50;25.98;48.91
31443;SHT31;18065;55.876;9.830;2023-06-22T06:01:18;25.98;48.86
31443;SHT31;18065;55.876;9.830;2023-06-22T06:03:50;25.97;48.91
31443;SHT31;18065;55.876;9.830;2023-06-22T06:06:18;26.01;48.82
31443;SHT31;18065;55.876;9.830;2023-06-22T06:08:54;26.01;48.86
31443;SHT31;18065;55.876;9.830;2023-06-22T06:11:23;25.98;48.92
31443;SHT31;18065;55.876;9.830;2023-06-22T06:13:52;26.00;49.00
31443;SHT31;18065;55.876;9.830;2023-06-22T06:16:21;26.00;48.94
31443;SHT31;18065;55.876;9.830;2023-06-22T06:18:53;25.97;48.95
31443;SHT31;18065;55.876;9.830;2023-06-22T06:21:21;25.97;49.00
31443;SHT31;18065;55.876;9.830;2023-06-22T06:23:50;26.00;48.93
31443;SHT31;18065;55.876;9.830;2023-06-22T06:26:19;25.96;49.06
31443;SHT31;18065;55.876;9.830;2023-06-22T06:28:52;26.00;48.96
31443;SHT31;18065;55.876;9.830;2023-06-22T06:31:21;25.98;49.01
31443;SHT31;18065;55.876;9.830;2023-06-22T06:33:49;25.98;49.02
31443;SHT31;18065;55.876;9.830;2023-06-22T06:36:22;25.98;49.01
31443;SHT31;18065;55.876;9.830;2023-06-22T06:38:50;25.98;49.01
31443;SHT31;18065;55.876;9.830;2023-06-22T06:41:19;26.03;48.96
31443;SHT31;18065;55.876;9.830;2023-06-22T06:43:48;26.05;48.90
31443;SHT31;18065;55.876;9.830;2023-06-22T06:46:17;26.08;48.91
31443;SHT31;18065;55.876;9.830;2023-06-22T06:48:47;26.05;49.07
31443;SHT31;18065;55.876;9.830;2023-06-22T06:51:15;26.05;48.97
31443;SHT31;18065;55.876;9.830;2023-06-22T06:53:47;26.10;48.94
31443;SHT31;18065;55.876;9.830;2023-06-22T06:56:16;26.10;48.91
31443;SHT31;18065;55.876;9.830;2023-06-22T06:58:45;26.08;48.87
31443;SHT31;18065;55.876;9.830;2023-06-22T07:01:14;26.11;48.86
31443;SHT31;18065;55.876;9.830;2023-06-22T07:03:42;26.11;48.93
31443;SHT31;18065;55.876;9.830;2023-06-22T07:06:11;26.12;48.88
31443;SHT31;18065;55.876;9.830;2023-06-22T07:08:40;26.14;48.86
31443;SHT31;18065;55.876;9.830;2023-06-22T07:11:11;26.10;48.88
31443;SHT31;18065;55.876;9.830;2023-06-22T07:13:40;26.14;48.82
31443;SHT31;18065;55.876;9.830;2023-06-22T07:16:08;26.16;48.93
31443;SHT31;18065;55.876;9.830;2023-06-22T07:18:39;26.12;48.95
31443;SHT31;18065;55.876;9.830;2023-06-22T07:21:08;26.14;48.91
31443;SHT31;18065;55.876;9.830;2023-06-22T07:23:36;26.12;48.90
31443;SHT31;18065;55.876;9.830;2023-06-22T07:26:05;26.08;49.13
31443;SHT31;18065;55.876;9.830;2023-06-22T07:28:37;26.08;49.17
31443;SHT31;18065;55.876;9.830;2023-06-22T07:31:06;26.08;49.06
31443;SHT31;18065;55.876;9.830;2023-06-22T07:33:35;26.10;48.98
31443;SHT31;18065;55.876;9.830;2023-06-22T07:36:04;26.10;48.90
31443;SHT31;18065;55.876;9.830;2023-06-22T07:38:33;26.12;48.86
31443;SHT31;18065;55.876;9.830;2023-06-22T07:41:02;26.14;48.88
31443;SHT31;18065;55.876;9.830;2023-06-22T07:43:32;26.11;49.04
31443;SHT31;18065;55.876;9.830;2023-06-22T07:46:05;26.10;48.99
31443;SHT31;18065;55.876;9.830;2023-06-22T07:48:36;26.11;48.92
31443;SHT31;18065;55.876;9.830;2023-06-22T07:51:07;26.12;48.87
31443;SHT31;18065;55.876;9.830;2023-06-22T07:53:39;26.17;48.81
31443;SHT31;18065;55.876;9.830;2023-06-22T07:56:10;26.12;48.80
31443;SHT31;18065;55.876;9.830;2023-06-22T07:58:39;26.12;48.78
31443;SHT31;18065;55.876;9.830;2023-06-22T08:01:10;26.16;48.81
31443;SHT31;18065;55.876;9.830;2023-06-22T08:03:39;26.17;48.71
31443;SHT31;18065;55.876;9.830;2023-06-22T08:06:08;26.20;48.65
31443;SHT31;18065;55.876;9.830;2023-06-22T08:08:37;26.14;48.43
31443;SHT31;18065;55.876;9.830;2023-06-22T08:11:06;26.17;48.38
31443;SHT31;18065;55.876;9.830;2023-06-22T08:13:35;26.20;48.34
31443;SHT31;18065;55.876;9.830;2023-06-22T08:16:04;26.14;48.29
31443;SHT31;18065;55.876;9.830;2023-06-22T08:18:36;26.18;48.27
31443;SHT31;18065;55.876;9.830;2023-06-22T08:21:04;26.20;48.15
31443;SHT31;18065;55.876;9.830;2023-06-22T08:23:33;26.21;48.08
31443;SHT31;18065;55.876;9.830;2023-06-22T08:26:02;26.21;48.01
31443;SHT31;18065;55.876;9.830;2023-06-22T08:28:30;26.21;47.97
31443;SHT31;18065;55.876;9.830;2023-06-22T08:30:59;26.21;47.94
31443;SHT31;18065;55.876;9.830;2023-06-22T08:33:28;26.22;47.93
31443;SHT31;18065;55.876;9.830;2023-06-22T08:35:59;26.24;47.90
31443;SHT31;18065;55.876;9.830;2023-06-22T08:38:28;26.24;47.83
31443;SHT31;18065;55.876;9.830;2023-06-22T08:40:57;26.24;47.83
31443;SHT31;18065;55.876;9.830;2023-06-22T08:43:26;26.25;47.78
31443;SHT31;18065;55.876;9.830;2023-06-22T08:45:55;26.25;47.74
31443;SHT31;18065;55.876;9.830;2023-06-22T08:48:23;26.25;47.70
31443;SHT31;18065;55.876;9.830;2023-06-22T08:50:53;26.21;47.54
31443;SHT31;18065;55.876;9.830;2023-06-22T08:53:24;26.25;47.62
31443;SHT31;18065;55.876;9.830;2023-06-22T08:55:53;26.30;47.46
31443;SHT31;18065;55.876;9.830;2023-06-22T08:58:22;26.25;47.51
31443;SHT31;18065;55.876;9.830;2023-06-22T09:00:51;26.27;47.46
31443;SHT31;18065;55.876;9.830;2023-06-22T09:03:20;26.32;47.55
31443;SHT31;18065;55.876;9.830;2023-06-22T09:05:52;26.31;47.40
31443;SHT31;18065;55.876;9.830;2023-06-22T09:08:24;26.27;47.32
31443;SHT31;18065;55.876;9.830;2023-06-22T09:10:53;26.28;47.23
31443;SHT31;18065;55.876;9.830;2023-06-22T09:13:21;26.25;46.98
31443;SHT31;18065;55.876;9.830;2023-06-22T09:15:51;26.27;46.99
31443;SHT31;18065;55.876;9.830;2023-06-22T09:18:19;26.30;46.73
31443;SHT31;18065;55.876;9.830;2023-06-22T09:20:48;26.27;46.74
31443;SHT31;18065;55.876;9.830;2023-06-22T09:23:17;26.30;46.76
31443;SHT31;18065;55.876;9.830;2023-06-22T09:25:49;26.27;46.87
31443;SHT31;18065;55.876;9.830;2023-06-22T09:28:17;26.27;47.01
31443;SHT31;18065;55.876;9.830;2023-06-22T09:30:46;26.27;46.88
31443;SHT31;18065;55.876;9.830;2023-06-22T09:33:15;26.31;46.73
31443;SHT31;18065;55.876;9.830;2023-06-22T09:35:45;26.31;46.64
31443;SHT31;18065;55.876;9.830;2023-06-22T09:38:15;26.32;46.66
31443;SHT31;18065;55.876;9.830;2023-06-22T09:40:44;26.37;46.58
31443;SHT31;18065;55.876;9.830;2023-06-22T09:43:15;26.35;46.59
31443;SHT31;18065;55.876;9.830;2023-06-22T09:45:44;26.38;46.58
31443;SHT31;18065;55.876;9.830;2023-06-22T09:48:13;26.40;46.59
31443;SHT31;18065;55.876;9.830;2023-06-22T09:50:42;26.38;46.58
31443;SHT31;18065;55.876;9.830;2023-06-22T09:53:11;26.40;46.48
31443;SHT31;18065;55.876;9.830;2023-06-22T09:55:39;26.40;46.40
31443;SHT31;18065;55.876;9.830;2023-06-22T09:58:08;26.41;46.42
31443;SHT31;18065;55.876;9.830;2023-06-22T10:00:39;26.44;46.53
31443;SHT31;18065;55.876;9.830;2023-06-22T10:03:09;26.45;46.41
31443;SHT31;18065;55.876;9.830;2023-06-22T10:05:37;26.47;46.30
31443;SHT31;18065;55.876;9.830;2023-06-22T10:08:06;26.45;46.16
31443;SHT31;18065;55.876;9.830;2023-06-22T10:10:35;26.48;45.93
31443;SHT31;18065;55.876;9.830;2023-06-22T10:13:08;26.48;45.92
31443;SHT31;18065;55.876;9.830;2023-06-22T10:15:41;26.48;45.98
31443;SHT31;18065;55.876;9.830;2023-06-22T10:18:15;26.47;45.75
31443;SHT31;18065;55.876;9.830;2023-06-22T10:20:44;26.47;45.83
31443;SHT31;18065;55.876;9.830;2023-06-22T10:23:12;26.49;45.89
31443;SHT31;18065;55.876;9.830;2023-06-22T10:25:41;26.51;45.88
31443;SHT31;18065;55.876;9.830;2023-06-22T10:28:10;26.51;45.68
31443;SHT31;18065;55.876;9.830;2023-06-22T10:30:41;26.55;45.61
31443;SHT31;18065;55.876;9.830;2023-06-22T10:33:11;26.53;45.45
31443;SHT31;18065;55.876;9.830;2023-06-22T10:35:39;26.58;45.49
31443;SHT31;18065;55.876;9.830;2023-06-22T10:38:08;26.53;45.53
31443;SHT31;18065;55.876;9.830;2023-06-22T10:40:37;26.55;45.52
31443;SHT31;18065;55.876;9.830;2023-06-22T10:43:06;26.61;45.63
31443;SHT31;18065;55.876;9.830;2023-06-22T10:45:34;26.58;45.60
31443;SHT31;18065;55.876;9.830;2023-06-22T10:48:06;26.59;45.60
31443;SHT31;18065;55.876;9.830;2023-06-22T10:50:34;26.58;45.64
31443;SHT31;18065;55.876;9.830;2023-06-22T10:53:03;26.59;45.66
31443;SHT31;18065;55.876;9.830;2023-06-22T10:55:32;26.61;45.64
31443;SHT31;18065;55.876;9.830;2023-06-22T10:58:00;26.62;45.54
31443;SHT31;18065;55.876;9.830;2023-06-22T11:00:29;26.62;45.21
31443;SHT31;18065;55.876;9.830;2023-06-22T11:02:58;26.62;45.19
31443;SHT31;18065;55.876;9.830;2023-06-22T11:05:29;26.63;45.28
31443;SHT31;18065;55.876;9.830;2023-06-22T11:07:57;26.62;44.85
31443;SHT31;18065;55.876;9.830;2023-06-22T11:10:26;26.66;44.80
31443;SHT31;18065;55.876;9.830;2023-06-22T11:12:55;26.65;44.85
31443;SHT31;18065;55.876;9.830;2023-06-22T11:15:24;26.65;44.85
31443;SHT31;18065;55.876;9.830;2023-06-22T11:17:52;26.65;44.92
31443;SHT31;18065;55.876;9.830;2023-06-22T11:20:21;26.65;44.99
31443;SHT31;18065;55.876;9.830;2023-06-22T11:22:52;26.65;45.03
31443;SHT31;18065;55.876;9.830;2023-06-22T11:25:21;26.65;44.99
31443;SHT31;18065;55.876;9.830;2023-06-22T11:27:50;26.65;45.07
31443;SHT31;18065;55.876;9.830;2023-06-22T11:30:19;26.66;45.11
31443;SHT31;18065;55.876;9.830;2023-06-22T11:32:48;26.68;45.11
31443;SHT31;18065;55.876;9.830;2023-06-22T11:35:17;26.66;45.09
31443;SHT31;18065;55.876;9.830;2023-06-22T11:37:45;26.72;44.94
31443;SHT31;18065;55.876;9.830;2023-06-22T11:40:17;26.70;45.06
31443;SHT31;18065;55.876;9.830;2023-06-22T11:42:45;26.69;45.06
31443;SHT31;18065;55.876;9.830;2023-06-22T11:45:14;26.72;45.01
31443;SHT31;18065;55.876;9.830;2023-06-22T11:47:43;26.70;45.03
31443;SHT31;18065;55.876;9.830;2023-06-22T11:50:12;26.70;44.61
31443;SHT31;18065;55.876;9.830;2023-06-22T11:52:41;26.75;44.61
31443;SHT31;18065;55.876;9.830;2023-06-22T11:55:10;26.70;44.64
31443;SHT31;18065;55.876;9.830;2023-06-22T11:57:54;26.72;44.83
31443;SHT31;18065;55.876;9.830;2023-06-22T12:00:25;26.73;44.84
31443;SHT31;18065;55.876;9.830;2023-06-22T12:02:54;26.73;44.75
31443;SHT31;18065;55.876;9.830;2023-06-22T12:05:23;26.70;44.73
31443;SHT31;18065;55.876;9.830;2023-06-22T12:07:53;26.72;44.74
31443;SHT31;18065;55.876;9.830;2023-06-22T12:10:22;26.73;44.79
31443;SHT31;18065;55.876;9.830;2023-06-22T12:12:54;26.73;44.94
31443;SHT31;18065;55.876;9.830;2023-06-22T12:15:23;26.73;45.01
31443;SHT31;18065;55.876;9.830;2023-06-22T12:17:52;26.75;45.42
31443;SHT31;18065;55.876;9.830;2023-06-22T12:20:20;26.78;45.87
31443;SHT31;18065;55.876;9.830;2023-06-22T12:22:49;26.76;45.82
31443;SHT31;18065;55.876;9.830;2023-06-22T12:25:19;26.75;45.88
31443;SHT31;18065;55.876;9.830;2023-06-22T12:27:48;26.76;45.71
31443;SHT31;18065;55.876;9.830;2023-06-22T12:30:19;26.73;45.40
31443;SHT31;18065;55.876;9.830;2023-06-22T12:32:48;26.76;44.34
31443;SHT31;18065;55.876;9.830;2023-06-22T12:35:17;26.75;43.83
31443;SHT31;18065;55.876;9.830;2023-06-22T12:37:45;26.73;43.41
31443;SHT31;18065;55.876;9.830;2023-06-22T12:40:14;26.73;43.45
31443;SHT31;18065;55.876;9.830;2023-06-22T12:42:44;26.73;43.75
31443;SHT31;18065;55.876;9.830;2023-06-22T12:45:13;26.72;43.96
31443;SHT31;18065;55.876;9.830;2023-06-22T12:47:44;26.73;44.13
31443;SHT31;18065;55.876;9.830;2023-06-22T12:50:15;26.75;44.15
31443;SHT31;18065;55.876;9.830;2023-06-22T12:52:43;26.72;44.13
31443;SHT31;18065;55.876;9.830;2023-06-22T12:55:12;26.75;44.25
31443;SHT31;18065;55.876;9.830;2023-06-22T12:57:41;26.72;44.31
31443;SHT31;18065;55.876;9.830;2023-06-22T13:00:11;26.75;44.40
31443;SHT31;18065;55.876;9.830;2023-06-22T13:02:39;26.73;44.45
31443;SHT31;18065;55.876;9.830;2023-06-22T13:05:11;26.72;44.38
31443;SHT31;18065;55.876;9.830;2023-06-22T13:07:40;26.73;44.19
31443;SHT31;18065;55.876;9.830;2023-06-22T13:10:09;26.75;44.12
31443;SHT31;18065;55.876;9.830;2023-06-22T13:12:37;26.76;43.76
31443;SHT31;18065;55.876;9.830;2023-06-22T13:15:07;26.78;43.75
31443;SHT31;18065;55.876;9.830;2023-06-22T13:17:36;26.78;43.56
31443;SHT31;18065;55.876;9.830;2023-06-22T13:20:06;26.79;43.59
31443;SHT31;18065;55.876;9.830;2023-06-22T13:22:37;26.78;43.70
31443;SHT31;18065;55.876;9.830;2023-06-22T13:25:09;26.80;43.64
31443;SHT31;18065;55.876;9.830;2023-06-22T13:27:38;26.82;43.77
31443;SHT31;18065;55.876;9.830;2023-06-22T13:30:08;26.79;43.91
31443;SHT31;18065;55.876;9.830;2023-06-22T13:32:37;26.86;44.12
31443;SHT31;18065;55.876;9.830;2023-06-22T13:35:08;26.83;44.33
31443;SHT31;18065;55.876;9.830;2023-06-22T13:37:39;26.88;44.54
31443;SHT31;18065;55.876;9.830;2023-06-22T13:40:08;26.86;44.62
31443;SHT31;18065;55.876;9.830;2023-06-22T13:42:37;26.86;44.76
31443;SHT31;18065;55.876;9.830;2023-06-22T13:45:07;26.88;44.79
31443;SHT31;18065;55.876;9.830;2023-06-22T13:47:36;26.88;44.88
31443;SHT31;18065;55.876;9.830;2023-06-22T13:50:06;26.89;44.94
31443;SHT31;18065;55.876;9.830;2023-06-22T13:52:35;26.90;44.93
31443;SHT31;18065;55.876;9.830;2023-06-22T13:55:08;26.89;44.86
31443;SHT31;18065;55.876;9.830;2023-06-22T13:57:40;26.90;44.75
31443;SHT31;18065;55.876;9.830;2023-06-22T14:00:09;26.89;44.74
31443;SHT31;18065;55.876;9.830;2023-06-22T14:02:39;26.90;44.39
31443;SHT31;18065;55.876;9.830;2023-06-22T14:05:11;26.92;44.34
31443;SHT31;18065;55.876;9.830;2023-06-22T14:07:39;26.92;44.04
31443;SHT31;18065;55.876;9.830;2023-06-22T14:10:11;26.95;43.89
31443;SHT31;18065;55.876;9.830;2023-06-22T14:12:40;26.92;43.98
31443;SHT31;18065;55.876;9.830;2023-06-22T14:15:09;26.92;43.95
31443;SHT31;18065;55.876;9.830;2023-06-22T14:17:37;26.95;44.00
31443;SHT31;18065;55.876;9.830;2023-06-22T14:20:07;26.95;44.02
31443;SHT31;18065;55.876;9.830;2023-06-22T14:22:36;26.96;44.06
31443;SHT31;18065;55.876;9.830;2023-06-22T14:25:06;26.99;44.13
31443;SHT31;18065;55.876;9.830;2023-06-22T14:27:38;26.96;44.13
31443;SHT31;18065;55.876;9.830;2023-06-22T14:30:07;26.95;44.07
31443;SHT31;18065;55.876;9.830;2023-06-22T14:32:36;26.96;44.05
31443;SHT31;18065;55.876;9.830;2023-06-22T14:35:05;26.98;44.07
31443;SHT31;18065;55.876;9.830;2023-06-22T14:37:34;27.00;44.07
31443;SHT31;18065;55.876;9.830;2023-06-22T14:40:03;27.00;44.09
31443;SHT31;18065;55.876;9.830;2023-06-22T14:42:32;27.02;43.98
31443;SHT31;18065;55.876;9.830;2023-06-22T14:45:05;27.02;43.95
31443;SHT31;18065;55.876;9.830;2023-06-22T14:47:33;27.00;43.83
31443;SHT31;18065;55.876;9.830;2023-06-22T14:50:03;26.99;43.58
31443;SHT31;18065;55.876;9.830;2023-06-22T14:52:31;27.00;43.35
31443;SHT31;18065;55.876;9.830;2023-06-22T14:55:00;27.00;43.19
31443;SHT31;18065;55.876;9.830;2023-06-22T14:57:29;27.02;42.93
31443;SHT31;18065;55.876;9.830;2023-06-22T14:59:57;27.03;42.78
31443;SHT31;18065;55.876;9.830;2023-06-22T15:02:29;27.00;42.73
31443;SHT31;18065;55.876;9.830;2023-06-22T15:04:58;27.04;42.65
31443;SHT31;18065;55.876;9.830;2023-06-22T15:07:27;27.03;42.68
31443;SHT31;18065;55.876;9.830;2023-06-22T15:09:55;27.04;42.71
31443;SHT31;18065;55.876;9.830;2023-06-22T15:12:24;27.04;42.89
31443;SHT31;18065;55.876;9.830;2023-06-22T15:14:53;27.03;43.01
31443;SHT31;18065;55.876;9.830;2023-06-22T15:17:21;27.07;43.03
31443;SHT31;18065;55.876;9.830;2023-06-22T15:19:57;27.04;42.96
31443;SHT31;18065;55.876;9.830;2023-06-22T15:22:26;27.07;42.91
31443;SHT31;18065;55.876;9.830;2023-06-22T15:24:56;27.10;42.79
31443;SHT31;18065;55.876;9.830;2023-06-22T15:27:26;27.11;42.44
31443;SHT31;18065;55.876;9.830;2023-06-22T15:29:55;27.09;42.46
31443;SHT31;18065;55.876;9.830;2023-06-22T15:32:24;27.10;42.25
31443;SHT31;18065;55.876;9.830;2023-06-22T15:34:58;27.11;42.34
31443;SHT31;18065;55.876;9.830;2023-06-22T15:37:26;27.11;42.35
31443;SHT31;18065;55.876;9.830;2023-06-22T15:39:55;27.14;42.27
31443;SHT31;18065;55.876;9.830;2023-06-22T15:42:24;27.13;42.46
31443;SHT31;18065;55.876;9.830;2023-06-22T15:44:53;27.14;42.46